createdAt,value
2018-12-05T00:01:35.267Z,42.87
2018-12-05T00:04:04.530Z,57.30
2018-12-05T00:06:33.676Z,44.70
2018-12-05T00:09:03.032Z,47.13
2018-12-05T00:11:32.141Z,52.23
2018-12-05T00:14:01.324Z,52.67
2018-12-05T00:16:31.079Z,51.17
2018-12-05T00:19:00.193Z,51.20
2018-12-05T00:21:29.305Z,59.93
2018-12-05T00:23:58.417Z,49.23
2018-12-05T00:26:27.565Z,62.50
2018-12-05T00:28:56.806Z,53.97
2018-12-05T00:31:26.528Z,79.90
2018-12-05T00:33:55.716Z,80.70
2018-12-05T00:36:24.889Z,100.50
2018-12-05T00:38:54.675Z,99.63
2018-12-05T00:41:26.733Z,95.10
2018-12-05T00:43:55.844Z,96.87
2018-12-05T00:46:25.013Z,72.77
2018-12-05T00:48:54.271Z,98.53
2018-12-05T00:51:23.453Z,100.77
2018-12-05T00:53:52.609Z,104.20
2018-12-05T00:56:21.769Z,89.60
2018-12-05T00:58:51.528Z,80.43
2018-12-05T01:04:03.800Z,67.73
2018-12-05T01:06:32.976Z,59.37
2018-12-05T01:09:02.162Z,86.00
2018-12-05T01:11:31.269Z,71.20
2018-12-05T01:14:00.512Z,68.53
2018-12-05T01:16:30.456Z,65.27
2018-12-05T01:18:59.672Z,76.73
2018-12-05T01:21:29.632Z,63.13
2018-12-05T01:23:59.016Z,56.30
2018-12-05T01:26:28.657Z,62.17
2018-12-05T01:28:58.240Z,56.03
2018-12-05T01:31:27.500Z,63.23
2018-12-05T01:33:58.840Z,69.07
2018-12-05T01:36:28.131Z,69.47
2018-12-05T01:38:57.568Z,76.23
2018-12-05T01:41:26.901Z,79.53
2018-12-05T01:43:56.346Z,78.97
2018-12-05T01:46:25.546Z,58.07
2018-12-05T01:48:54.868Z,64.50
2018-12-05T01:51:24.141Z,51.27
2018-12-05T01:53:53.431Z,53.90
2018-12-05T01:56:22.928Z,74.27
2018-12-05T01:58:52.433Z,59.17
2018-12-05T02:01:21.647Z,54.97
2018-12-05T02:03:51.194Z,70.50
2018-12-05T02:06:23.149Z,56.57
2018-12-05T02:08:53.033Z,63.60
2018-12-05T02:11:22.381Z,51.13
2018-12-05T02:13:52.516Z,49.03
2018-12-05T02:16:21.720Z,52.27
2018-12-05T02:18:50.865Z,63.57
2018-12-05T02:21:20.382Z,52.20
2018-12-05T02:23:49.529Z,54.80
2018-12-05T02:26:18.709Z,53.93
2018-12-05T02:28:47.919Z,43.97
2018-12-05T02:31:17.598Z,47.50
2018-12-05T02:33:46.878Z,46.70
2018-12-05T02:36:17.107Z,46.33
2018-12-05T02:38:46.562Z,42.00
2018-12-05T02:41:16.469Z,55.70
2018-12-05T02:43:45.831Z,42.20
2018-12-05T02:46:15.195Z,43.43
2018-12-05T02:48:44.812Z,43.07
2018-12-05T02:51:14.744Z,42.10
2018-12-05T02:53:43.940Z,42.60
2018-12-05T02:56:13.131Z,40.80
2018-12-05T02:58:42.518Z,43.20
2018-12-05T03:01:11.739Z,48.87
2018-12-05T03:03:41.239Z,53.23
2018-12-05T03:06:10.614Z,49.43
2018-12-05T03:08:39.738Z,44.20
2018-12-05T03:11:09.307Z,46.20
2018-12-05T03:13:38.561Z,48.40
2018-12-05T03:16:08.365Z,58.13
2018-12-05T03:18:37.785Z,60.87
2018-12-05T03:21:06.960Z,63.50
2018-12-05T03:23:36.084Z,55.83
2018-12-05T03:26:05.420Z,66.60
2018-12-05T03:28:34.572Z,52.53
2018-12-05T03:31:03.914Z,74.80
2018-12-05T03:33:33.871Z,72.93
2018-12-05T03:36:03.208Z,73.63
2018-12-05T03:38:32.987Z,70.87
2018-12-05T03:41:02.684Z,63.17
2018-12-05T03:43:31.817Z,60.10
2018-12-05T03:46:01.063Z,55.33
2018-12-05T03:48:30.353Z,52.63
2018-12-05T03:51:12.736Z,46.27
2018-12-05T03:53:42.308Z,51.03
2018-12-05T03:56:12.248Z,66.93
2018-12-05T03:58:41.381Z,50.10
2018-12-05T04:01:11.455Z,59.63
2018-12-05T04:03:40.613Z,48.13
2018-12-05T04:06:09.906Z,51.97
2018-12-05T04:08:40.284Z,50.80
2018-12-05T04:11:11.332Z,53.43
2018-12-05T04:13:40.581Z,54.67
2018-12-05T04:16:09.875Z,52.40
2018-12-05T04:18:39.082Z,43.50
2018-12-05T04:21:08.887Z,43.03
2018-12-05T04:23:38.144Z,50.67
2018-12-05T04:26:07.477Z,40.20
2018-12-05T04:28:37.035Z,47.00
2018-12-05T04:31:06.262Z,41.60
2018-12-05T04:33:35.540Z,51.03
2018-12-05T04:36:04.784Z,42.27
2018-12-05T04:38:34.045Z,36.43
2018-12-05T04:41:03.329Z,30.27
2018-12-05T04:43:33.051Z,34.83
2018-12-05T04:46:02.298Z,27.50
2018-12-05T04:48:31.743Z,22.30
2018-12-05T04:51:00.914Z,21.63
2018-12-05T04:53:30.415Z,23.13
2018-12-05T04:55:59.560Z,24.57
2018-12-05T04:58:29.500Z,19.20
2018-12-05T05:00:58.636Z,16.93
2018-12-05T05:03:27.771Z,23.80
2018-12-05T05:05:57.028Z,24.57
2018-12-05T05:08:26.224Z,20.40
2018-12-05T05:10:55.579Z,23.73
2018-12-05T05:13:24.848Z,23.83
2018-12-05T05:15:53.995Z,33.80
2018-12-05T05:18:23.321Z,27.00
2018-12-05T05:20:52.695Z,22.67
2018-12-05T05:23:21.998Z,27.57
2018-12-05T05:25:51.333Z,28.63
2018-12-05T05:28:20.582Z,28.17
2018-12-05T05:30:50.132Z,26.53
2018-12-05T05:33:19.308Z,24.70
2018-12-05T05:35:49.242Z,18.33
2018-12-05T05:38:18.444Z,23.40
2018-12-05T05:40:48.272Z,27.43
2018-12-05T05:43:17.485Z,24.33
2018-12-05T05:45:46.832Z,23.40
2018-12-05T05:48:16.265Z,26.20
2018-12-05T05:50:45.522Z,26.93
2018-12-05T05:53:15.017Z,23.17
2018-12-05T05:55:44.196Z,26.10
2018-12-05T05:58:13.330Z,21.27
2018-12-05T06:00:42.616Z,23.73
2018-12-05T06:03:12.020Z,29.97
2018-12-05T06:05:41.611Z,30.80
2018-12-05T06:08:10.818Z,28.50
2018-12-05T06:10:40.048Z,34.40
2018-12-05T06:13:09.205Z,29.43
2018-12-05T06:15:38.440Z,34.23
2018-12-05T06:18:07.675Z,28.07
2018-12-05T06:20:37.000Z,27.87
2018-12-05T06:23:06.573Z,43.60
2018-12-05T06:25:36.194Z,28.00
2018-12-05T06:28:05.482Z,27.93
2018-12-05T06:30:34.623Z,27.57
2018-12-05T06:33:03.768Z,31.20
2018-12-05T06:35:32.912Z,28.20
2018-12-05T06:38:02.449Z,29.03
2018-12-05T06:40:33.507Z,34.13
2018-12-05T06:43:02.652Z,24.93
2018-12-05T06:45:31.776Z,26.33
2018-12-05T06:48:01.601Z,24.07
2018-12-05T06:50:30.804Z,27.07
2018-12-05T06:53:00.084Z,23.97
2018-12-05T06:55:29.227Z,31.77
2018-12-05T06:57:58.704Z,32.37
2018-12-05T07:00:27.932Z,24.40
2018-12-05T07:02:57.892Z,27.27
2018-12-05T07:05:27.020Z,26.40
2018-12-05T07:07:56.189Z,31.73
2018-12-05T07:10:25.325Z,35.07
2018-12-05T07:12:54.449Z,32.57
2018-12-05T07:15:23.744Z,22.90
2018-12-05T07:17:53.031Z,26.23
2018-12-05T07:20:22.205Z,28.37
2018-12-05T07:22:51.455Z,35.10
2018-12-05T07:25:20.723Z,35.37
2018-12-05T07:27:50.344Z,26.20
2018-12-05T07:30:19.589Z,28.47
2018-12-05T07:32:48.796Z,34.90
2018-12-05T07:35:18.256Z,29.87
2018-12-05T07:37:47.595Z,27.90
2018-12-05T07:40:19.391Z,31.80
2018-12-05T07:42:49.001Z,34.30
2018-12-05T07:45:18.202Z,24.13
2018-12-05T07:47:47.325Z,30.83
2018-12-05T07:50:16.528Z,33.77
2018-12-05T07:52:47.146Z,31.57
2018-12-05T07:55:16.288Z,32.00
2018-12-05T07:57:45.936Z,26.50
2018-12-05T08:00:15.253Z,29.23
2018-12-05T08:02:44.548Z,27.97
2018-12-05T08:05:13.972Z,26.77
2018-12-05T08:07:43.215Z,29.33
2018-12-05T08:10:12.425Z,32.53
2018-12-05T08:12:41.549Z,25.53
2018-12-05T08:15:10.816Z,27.00
2018-12-05T08:17:40.028Z,31.60
2018-12-05T08:20:09.340Z,27.33
2018-12-05T08:22:38.569Z,30.20
2018-12-05T08:25:07.828Z,30.53
2018-12-05T08:27:37.040Z,36.10
2018-12-05T08:30:07.056Z,30.10
2018-12-05T08:32:36.287Z,33.20
2018-12-05T08:35:06.215Z,37.00
2018-12-05T08:37:35.473Z,30.07
2018-12-05T08:40:06.428Z,30.00
2018-12-05T08:42:35.553Z,32.33
2018-12-05T08:45:04.917Z,31.33
2018-12-05T08:47:34.043Z,37.63
2018-12-05T08:50:03.328Z,35.50
2018-12-05T08:52:32.520Z,33.47
2018-12-05T08:55:01.736Z,30.93
2018-12-05T08:57:31.007Z,34.77
2018-12-05T09:00:00.210Z,30.13
2018-12-05T09:02:29.417Z,29.83
2018-12-05T09:04:58.552Z,38.23
2018-12-05T09:07:27.745Z,30.10
2018-12-05T09:09:57.220Z,28.90
2018-12-05T09:12:26.550Z,29.17
2018-12-05T09:14:55.687Z,31.80
2018-12-05T09:17:25.000Z,30.90
2018-12-05T09:19:54.377Z,25.37
2018-12-05T09:22:23.567Z,26.90
2018-12-05T09:24:53.156Z,35.93
2018-12-05T09:27:22.303Z,31.80
2018-12-05T09:29:51.551Z,31.33
2018-12-05T09:32:21.672Z,27.70
2018-12-05T09:34:50.835Z,29.50
2018-12-05T09:37:20.044Z,22.70
2018-12-05T09:39:49.164Z,32.20
2018-12-05T09:42:18.341Z,30.00
2018-12-05T09:44:47.660Z,31.03
2018-12-05T09:47:16.928Z,29.70
2018-12-05T09:49:46.117Z,26.90
2018-12-05T09:52:15.725Z,30.00
2018-12-05T09:54:44.872Z,28.70
2018-12-05T09:57:14.156Z,32.60
2018-12-05T09:59:43.616Z,24.97
2018-12-05T10:02:12.740Z,29.57
2018-12-05T10:04:41.860Z,34.60
2018-12-05T10:07:11.000Z,26.97
2018-12-05T10:09:40.147Z,25.80
2018-12-05T10:12:09.343Z,28.03
2018-12-05T10:14:38.581Z,22.20
2018-12-05T10:17:07.913Z,30.30
2018-12-05T10:19:37.073Z,27.73
2018-12-05T10:22:06.307Z,26.07
2018-12-05T10:24:35.587Z,24.30
2018-12-05T10:27:04.729Z,27.00
2018-12-05T10:29:33.915Z,31.10
2018-12-05T10:32:03.086Z,27.37
2018-12-05T10:34:32.305Z,27.23
2018-12-05T10:37:01.470Z,26.63
2018-12-05T10:39:30.701Z,25.77
2018-12-05T10:41:59.923Z,22.70
2018-12-05T10:44:29.190Z,25.07
2018-12-05T10:46:58.463Z,30.50
2018-12-05T10:49:27.604Z,24.13
2018-12-05T10:51:56.820Z,23.80
2018-12-05T10:54:26.083Z,25.87
2018-12-05T10:56:55.420Z,27.10
2018-12-05T10:59:24.749Z,22.37
2018-12-05T11:01:59.025Z,29.23
2018-12-05T11:04:34.088Z,22.30
2018-12-05T11:07:08.820Z,24.70
2018-12-05T11:09:43.627Z,27.53
2018-12-05T11:12:18.564Z,27.70
2018-12-05T11:16:56.432Z,23.90
2018-12-05T11:19:30.936Z,21.87
2018-12-05T11:24:11.257Z,24.97
2018-12-05T11:26:40.777Z,27.93
2018-12-05T11:29:12.344Z,23.10
2018-12-05T11:31:41.581Z,24.83
2018-12-05T11:34:11.223Z,21.80
2018-12-05T11:36:40.536Z,24.90
2018-12-05T11:39:09.832Z,24.80
2018-12-05T11:41:39.065Z,25.07
2018-12-05T11:44:08.240Z,26.43
2018-12-05T11:46:37.769Z,27.07
2018-12-05T11:49:07.419Z,29.33
2018-12-05T11:51:36.635Z,25.73
2018-12-05T11:54:05.957Z,24.47
2018-12-05T11:56:35.109Z,25.40
2018-12-05T11:59:04.367Z,27.73
2018-12-05T12:01:33.781Z,20.93
2018-12-05T12:04:03.039Z,25.07
2018-12-05T12:06:32.856Z,27.53
2018-12-05T12:09:02.223Z,24.00
2018-12-05T12:11:31.514Z,22.60
2018-12-05T12:14:00.799Z,24.03
2018-12-05T12:16:30.028Z,27.03
2018-12-05T12:18:59.598Z,27.13
2018-12-05T12:21:28.779Z,24.10
2018-12-05T12:23:57.927Z,17.80
2018-12-05T12:26:33.194Z,23.90
2018-12-05T12:28:58.372Z,22.80
2018-12-05T12:31:27.516Z,20.60
2018-12-05T12:33:56.753Z,22.80
2018-12-05T12:36:26.029Z,19.80
2018-12-05T12:38:55.248Z,24.53
2018-12-05T12:41:24.393Z,23.33
2018-12-05T12:43:53.596Z,25.53
2018-12-05T12:46:22.788Z,21.53
2018-12-05T12:48:52.016Z,23.03
2018-12-05T12:51:21.267Z,21.63
2018-12-05T12:53:51.685Z,21.67
2018-12-05T12:56:20.948Z,21.10
2018-12-05T12:58:50.164Z,23.33
2018-12-05T13:01:19.293Z,22.40
2018-12-05T13:03:48.432Z,19.70
2018-12-05T13:06:17.569Z,24.67
2018-12-05T13:08:46.751Z,24.07
2018-12-05T13:11:15.973Z,22.93
2018-12-05T13:13:45.217Z,26.70
2018-12-05T13:16:14.522Z,21.30
2018-12-05T13:18:43.748Z,28.70
2018-12-05T13:21:12.965Z,21.97
2018-12-05T13:23:42.156Z,26.23
2018-12-05T13:26:11.450Z,26.30
2018-12-05T13:28:40.990Z,24.20
2018-12-05T13:31:10.264Z,19.53
2018-12-05T13:33:39.422Z,23.03
2018-12-05T13:36:08.608Z,22.07
2018-12-05T13:38:37.928Z,20.83
2018-12-05T13:41:07.244Z,25.13
2018-12-05T13:43:36.358Z,24.93
2018-12-05T13:46:05.694Z,23.97
2018-12-05T13:48:35.741Z,23.67
2018-12-05T13:51:05.161Z,24.83
2018-12-05T13:53:34.360Z,23.73
2018-12-05T13:56:03.591Z,23.50
2018-12-05T13:58:33.632Z,20.00
2018-12-05T14:01:02.776Z,20.87
2018-12-05T14:03:31.945Z,24.00
2018-12-05T14:06:01.187Z,20.20
2018-12-05T14:08:30.360Z,24.20
2018-12-05T14:10:59.539Z,19.20
2018-12-05T14:13:29.274Z,22.90
2018-12-05T14:15:58.602Z,20.23
2018-12-05T14:18:27.822Z,27.07
2018-12-05T14:20:57.085Z,20.90
2018-12-05T14:23:26.433Z,20.90
2018-12-05T14:25:55.957Z,21.20
2018-12-05T14:28:25.192Z,27.33
2018-12-05T14:30:54.425Z,21.53
2018-12-05T14:33:24.066Z,25.13
2018-12-05T14:35:53.224Z,20.27
2018-12-05T14:38:22.400Z,23.00
2018-12-05T14:40:51.648Z,21.13
2018-12-05T14:43:21.464Z,21.40
2018-12-05T14:45:50.613Z,18.60
2018-12-05T14:48:20.008Z,18.10
2018-12-05T14:50:49.512Z,18.70
2018-12-05T14:53:20.240Z,14.87
2018-12-05T14:55:49.436Z,17.13
2018-12-05T14:58:18.580Z,19.67
2018-12-05T15:00:47.716Z,20.87
2018-12-05T15:03:17.200Z,16.87
2018-12-05T15:05:46.403Z,23.50
2018-12-05T15:08:15.545Z,19.17
2018-12-05T15:10:45.681Z,19.03
2018-12-05T15:13:14.884Z,21.63
2018-12-05T15:15:44.040Z,18.53
2018-12-05T15:18:13.288Z,17.93
2018-12-05T15:20:42.411Z,15.60
2018-12-05T15:23:11.861Z,22.57
2018-12-05T15:25:40.999Z,25.87
2018-12-05T15:28:10.320Z,18.40
2018-12-05T15:30:39.968Z,15.60
2018-12-05T15:33:09.300Z,17.53
2018-12-05T15:35:38.535Z,19.67
2018-12-05T15:38:07.905Z,22.00
2018-12-05T15:40:37.072Z,19.73
2018-12-05T15:43:06.582Z,19.37
2018-12-05T15:45:35.807Z,15.87
2018-12-05T15:48:05.148Z,17.87
2018-12-05T15:50:34.407Z,19.93
2018-12-05T15:53:03.561Z,20.57
2018-12-05T15:55:36.768Z,22.10
2018-12-05T15:58:06.012Z,27.60
2018-12-05T16:00:35.720Z,20.50
2018-12-05T16:03:05.173Z,21.67
2018-12-05T16:05:34.335Z,18.97
2018-12-05T16:08:03.916Z,21.30
2018-12-05T16:10:34.288Z,22.37
2018-12-05T16:13:05.190Z,31.53
2018-12-05T16:15:34.856Z,19.90
2018-12-05T16:18:04.137Z,21.53
2018-12-05T16:20:33.356Z,22.73
2018-12-05T16:23:02.809Z,23.93
2018-12-05T16:25:32.072Z,21.97
2018-12-05T16:28:01.272Z,25.20
2018-12-05T16:30:30.414Z,22.30
2018-12-05T16:32:59.716Z,24.93
2018-12-05T16:35:28.876Z,24.30
2018-12-05T16:37:58.235Z,17.90
2018-12-05T16:40:27.400Z,20.67
2018-12-05T16:42:56.945Z,18.50
2018-12-05T16:45:26.270Z,24.40
2018-12-05T16:47:55.533Z,22.00
2018-12-05T16:50:24.780Z,23.00
2018-12-05T16:52:54.015Z,25.13
2018-12-05T16:55:23.194Z,21.77
2018-12-05T16:57:52.353Z,20.50
2018-12-05T17:00:21.584Z,21.67
2018-12-05T17:02:50.788Z,25.60
2018-12-05T17:05:20.333Z,20.30
2018-12-05T17:07:49.764Z,21.30
2018-12-05T17:10:18.996Z,24.17
2018-12-05T17:12:48.239Z,24.93
2018-12-05T17:15:17.543Z,19.90
2018-12-05T17:17:46.769Z,22.77
2018-12-05T17:20:15.901Z,23.00
2018-12-05T17:22:45.092Z,24.53
2018-12-05T17:25:14.396Z,25.70
2018-12-05T17:27:43.636Z,21.80
2018-12-05T17:30:12.942Z,21.50
2018-12-05T17:32:42.317Z,24.27
2018-12-05T17:35:11.477Z,21.50
2018-12-05T17:37:41.220Z,21.97
2018-12-05T17:40:10.808Z,21.67
2018-12-05T17:42:39.977Z,17.67
2018-12-05T17:45:09.534Z,23.37
2018-12-05T17:47:38.848Z,25.43
2018-12-05T17:50:08.174Z,22.43
2018-12-05T17:52:37.391Z,22.63
2018-12-05T17:55:07.406Z,22.00
2018-12-05T17:57:36.797Z,21.87
2018-12-05T18:00:07.340Z,27.90
2018-12-05T18:02:36.951Z,25.50
2018-12-05T18:05:09.213Z,23.83
2018-12-05T18:07:38.397Z,22.33
2018-12-05T18:10:07.866Z,22.10
2018-12-05T18:12:37.008Z,22.57
2018-12-05T18:15:06.448Z,25.43
2018-12-05T18:17:36.409Z,27.40
2018-12-05T18:20:09.664Z,25.10
2018-12-05T18:22:39.180Z,24.73
2018-12-05T18:25:09.608Z,26.20
2018-12-05T18:27:38.975Z,27.10
2018-12-05T18:30:10.181Z,28.00
2018-12-05T18:32:39.372Z,22.27
2018-12-05T18:35:08.724Z,22.80
2018-12-05T18:37:37.996Z,25.63
2018-12-05T18:40:07.754Z,27.40
2018-12-05T18:42:37.028Z,28.07
2018-12-05T18:45:08.000Z,21.30
2018-12-05T18:47:37.756Z,27.50
2018-12-05T18:50:08.347Z,27.50
2018-12-05T18:52:37.640Z,30.70
2018-12-05T18:55:07.012Z,24.20
2018-12-05T18:57:36.232Z,23.67
2018-12-05T19:00:08.929Z,30.10
2018-12-05T19:02:38.132Z,26.77
2018-12-05T19:05:08.885Z,29.27
2018-12-05T19:07:38.037Z,25.07
2018-12-05T19:10:07.577Z,28.57
2018-12-05T19:12:36.850Z,27.00
2018-12-05T19:15:07.436Z,28.57
2018-12-05T19:17:36.595Z,26.70
2018-12-05T19:20:07.095Z,28.70
2018-12-05T19:22:36.264Z,25.43
2018-12-05T19:25:06.681Z,29.00
2018-12-05T19:27:37.365Z,27.57
2018-12-05T19:30:08.893Z,34.50
2018-12-05T19:32:38.036Z,35.57
2018-12-05T19:35:07.901Z,37.80
2018-12-05T19:37:37.308Z,27.30
2018-12-05T19:40:07.022Z,26.53
2018-12-05T19:42:36.160Z,28.33
2018-12-05T19:45:07.320Z,26.33
2018-12-05T19:47:36.631Z,24.80
2018-12-05T19:50:07.640Z,22.87
2018-12-05T19:52:37.863Z,30.93
2018-12-05T19:55:07.309Z,26.73
2018-12-05T19:57:36.460Z,25.93
2018-12-05T20:00:08.733Z,25.50
2018-12-05T20:02:37.874Z,31.23
2018-12-05T20:05:07.280Z,31.53
2018-12-05T20:07:37.052Z,25.40
2018-12-05T20:10:07.220Z,30.83
2018-12-05T20:12:36.581Z,25.50
2018-12-05T20:15:06.056Z,25.47
2018-12-05T20:17:35.216Z,20.37
2018-12-05T20:20:05.796Z,20.83
2018-12-05T20:22:35.385Z,19.00
2018-12-05T20:25:04.683Z,25.57
2018-12-05T20:27:34.583Z,23.27
2018-12-05T20:30:04.143Z,26.50
2018-12-05T20:32:33.380Z,24.53
2018-12-05T20:35:03.544Z,22.33
2018-12-05T20:37:33.561Z,23.43
2018-12-05T20:40:02.816Z,17.47
2018-12-05T20:42:32.125Z,16.87
2018-12-05T20:45:02.816Z,19.60
2018-12-05T20:47:32.197Z,19.20
2018-12-05T20:50:01.350Z,18.90
2018-12-05T20:52:30.504Z,20.33
2018-12-05T20:55:00.037Z,17.47
2018-12-05T20:57:29.178Z,19.57
2018-12-05T20:59:58.413Z,17.83
2018-12-05T21:02:27.618Z,16.70
2018-12-05T21:04:56.773Z,19.30
2018-12-05T21:07:26.764Z,18.73
2018-12-05T21:09:55.975Z,21.87
2018-12-05T21:12:25.196Z,21.37
2018-12-05T21:14:54.639Z,26.30
2018-12-05T21:17:25.572Z,21.40
2018-12-05T21:19:55.223Z,20.27
2018-12-05T21:22:24.552Z,21.90
2018-12-05T21:24:53.748Z,26.07
2018-12-05T21:27:23.134Z,28.43
2018-12-05T21:29:52.352Z,21.47
2018-12-05T21:32:21.808Z,19.60
2018-12-05T21:34:51.561Z,20.13
2018-12-05T21:37:20.996Z,21.07
2018-12-05T21:39:50.483Z,22.50
2018-12-05T21:42:21.939Z,18.80
2018-12-05T21:44:51.128Z,19.00
2018-12-05T21:47:20.478Z,16.77
2018-12-05T21:49:49.975Z,19.60
2018-12-05T21:52:19.150Z,18.53
2018-12-05T21:54:48.895Z,17.10
2018-12-05T21:57:18.036Z,17.93
2018-12-05T21:59:47.776Z,23.63
2018-12-05T22:02:17.005Z,25.00
2018-12-05T22:04:46.284Z,20.40
2018-12-05T22:07:15.686Z,21.70
2018-12-05T22:09:44.869Z,21.80
2018-12-05T22:12:14.023Z,17.70
2018-12-05T22:14:43.260Z,19.30
2018-12-05T22:17:12.648Z,16.43
2018-12-05T22:19:42.044Z,19.20
2018-12-05T22:22:11.703Z,18.83
2018-12-05T22:24:41.364Z,19.67
2018-12-05T22:27:10.637Z,30.73
2018-12-05T22:29:39.846Z,21.90
2018-12-05T22:32:09.493Z,17.30
2018-12-05T22:34:39.148Z,16.27
2018-12-05T22:37:08.498Z,15.83
2018-12-05T22:39:37.828Z,16.97
2018-12-05T22:42:07.160Z,14.97
2018-12-05T22:44:36.314Z,16.73
2018-12-05T22:47:05.582Z,18.30
2018-12-05T22:49:34.917Z,19.47
2018-12-05T22:52:04.081Z,18.30
2018-12-05T22:54:33.742Z,18.37
2018-12-05T22:57:20.665Z,16.00
2018-12-05T22:59:49.928Z,16.80
2018-12-05T23:02:19.240Z,15.53
2018-12-05T23:04:48.416Z,15.73
2018-12-05T23:07:17.936Z,19.83
2018-12-05T23:09:47.736Z,18.90
2018-12-05T23:12:16.993Z,18.80
2018-12-05T23:14:46.386Z,17.30
2018-12-05T23:17:15.959Z,18.83
2018-12-05T23:19:49.220Z,17.57
2018-12-05T23:22:18.415Z,19.40
2018-12-05T23:24:47.691Z,24.93
2018-12-05T23:27:17.374Z,16.10
2018-12-05T23:29:46.592Z,17.37
2018-12-05T23:32:15.975Z,16.90
2018-12-05T23:34:45.199Z,16.23
2018-12-05T23:37:14.565Z,19.00
2018-12-05T23:39:46.627Z,16.87
2018-12-05T23:42:15.957Z,17.67
2018-12-05T23:44:45.185Z,20.77
2018-12-05T23:47:14.420Z,22.47
2018-12-05T23:49:43.671Z,20.90
2018-12-05T23:52:12.859Z,24.10
2018-12-05T23:54:42.307Z,22.23
2018-12-05T23:57:11.568Z,23.30
2018-12-05T23:59:41.236Z,26.23
